sensor_id;sensor_type;location;lat;lon;timestamp;temperature;humidity
51986;DHT22;38002;53.296;6.600;2022-07-10T00:02:06;14.70;99.90
51986;DHT22;38002;53.296;6.600;2022-07-10T00:04:32;14.70;99.90
51986;DHT22;38002;53.296;6.600;2022-07-10T00:06:57;14.70;99.90
51986;DHT22;38002;53.296;6.600;2022-07-10T00:09:24;14.70;99.90
51986;DHT22;38002;53.296;6.600;2022-07-10T00:11:49;14.70;99.90
51986;DHT22;38002;53.296;6.600;2022-07-10T00:14:15;14.70;99.90
51986;DHT22;38002;53.296;6.600;2022-07-10T00:16:41;14.70;99.90
51986;DHT22;38002;53.296;6.600;2022-07-10T00:19:06;14.90;99.90
51986;DHT22;38002;53.296;6.600;2022-07-10T00:21:32;14.70;99.90
51986;DHT22;38002;53.296;6.600;2022-07-10T00:23:57;14.70;99.90
51986;DHT22;38002;53.296;6.600;2022-07-10T00:26:23;14.70;99.90
51986;DHT22;38002;53.296;6.600;2022-07-10T00:28:49;14.70;99.90
51986;DHT22;38002;53.296;6.600;2022-07-10T00:31:14;14.70;99.90
51986;DHT22;38002;53.296;6.600;2022-07-10T00:33:40;14.60;99.90
51986;DHT22;38002;53.296;6.600;2022-07-10T00:36:05;14.60;99.90
51986;DHT22;38002;53.296;6.600;2022-07-10T00:38:31;14.60;99.90
51986;DHT22;38002;53.296;6.600;2022-07-10T00:40:57;14.60;99.90
51986;DHT22;38002;53.296;6.600;2022-07-10T00:43:22;14.60;99.90
51986;DHT22;38002;53.296;6.600;2022-07-10T00:45:48;14.60;99.90
51986;DHT22;38002;53.296;6.600;2022-07-10T00:48:14;14.60;99.90
51986;DHT22;38002;53.296;6.600;2022-07-10T00:50:40;14.60;99.90
51986;DHT22;38002;53.296;6.600;2022-07-10T00:53:07;14.60;99.90
51986;DHT22;38002;53.296;6.600;2022-07-10T00:55:32;14.50;99.90
51986;DHT22;38002;53.296;6.600;2022-07-10T00:57:59;14.50;99.90
51986;DHT22;38002;53.296;6.600;2022-07-10T01:00:25;14.50;99.90
51986;DHT22;38002;53.296;6.600;2022-07-10T01:02:51;14.50;99.90
51986;DHT22;38002;53.296;6.600;2022-07-10T01:05:17;14.50;99.90
51986;DHT22;38002;53.296;6.600;2022-07-10T01:07:43;14.50;99.90
51986;DHT22;38002;53.296;6.600;2022-07-10T01:10:09;14.50;99.90
51986;DHT22;38002;53.296;6.600;2022-07-10T01:12:35;14.50;99.90
51986;DHT22;38002;53.296;6.600;2022-07-10T01:15:01;14.60;99.90
51986;DHT22;38002;53.296;6.600;2022-07-10T01:17:27;14.50;99.90
51986;DHT22;38002;53.296;6.600;2022-07-10T01:19:54;14.60;99.90
51986;DHT22;38002;53.296;6.600;2022-07-10T01:22:20;14.50;99.90
51986;DHT22;38002;53.296;6.600;2022-07-10T01:24:46;14.50;99.90
51986;DHT22;38002;53.296;6.600;2022-07-10T01:27:11;14.60;99.90
51986;DHT22;38002;53.296;6.600;2022-07-10T01:29:37;14.50;99.90
51986;DHT22;38002;53.296;6.600;2022-07-10T01:32:03;14.50;99.90
51986;DHT22;38002;53.296;6.600;2022-07-10T01:34:28;14.50;99.90
51986;DHT22;38002;53.296;6.600;2022-07-10T01:36:54;14.50;99.90
51986;DHT22;38002;53.296;6.600;2022-07-10T01:39:20;14.50;99.90
51986;DHT22;38002;53.296;6.600;2022-07-10T01:41:45;14.50;99.90
51986;DHT22;38002;53.296;6.600;2022-07-10T01:44:11;14.50;99.90
51986;DHT22;38002;53.296;6.600;2022-07-10T01:46:46;14.50;99.90
51986;DHT22;38002;53.296;6.600;2022-07-10T01:49:12;14.50;99.90
51986;DHT22;38002;53.296;6.600;2022-07-10T01:51:38;14.50;99.90
51986;DHT22;38002;53.296;6.600;2022-07-10T01:54:04;14.50;99.90
51986;DHT22;38002;53.296;6.600;2022-07-10T01:56:29;14.50;99.90
51986;DHT22;38002;53.296;6.600;2022-07-10T01:58:55;14.50;99.90
51986;DHT22;38002;53.296;6.600;2022-07-10T02:01:20;14.50;99.90
51986;DHT22;38002;53.296;6.600;2022-07-10T02:03:46;14.50;99.90
51986;DHT22;38002;53.296;6.600;2022-07-10T02:06:30;14.40;99.90
51986;DHT22;38002;53.296;6.600;2022-07-10T02:08:56;14.50;99.90
51986;DHT22;38002;53.296;6.600;2022-07-10T02:11:21;14.40;99.90
51986;DHT22;38002;53.296;6.600;2022-07-10T02:13:47;14.40;99.90
51986;DHT22;38002;53.296;6.600;2022-07-10T02:16:13;14.40;99.90
51986;DHT22;38002;53.296;6.600;2022-07-10T02:18:38;14.40;99.90
51986;DHT22;38002;53.296;6.600;2022-07-10T02:21:04;14.40;99.90
51986;DHT22;38002;53.296;6.600;2022-07-10T02:23:30;14.40;99.90
51986;DHT22;38002;53.296;6.600;2022-07-10T02:25:56;14.30;99.90
51986;DHT22;38002;53.296;6.600;2022-07-10T02:28:21;14.30;99.90
51986;DHT22;38002;53.296;6.600;2022-07-10T02:30:47;14.30;99.90
51986;DHT22;38002;53.296;6.600;2022-07-10T02:33:12;14.30;99.90
51986;DHT22;38002;53.296;6.600;2022-07-10T02:35:38;14.30;99.90
51986;DHT22;38002;53.296;6.600;2022-07-10T02:38:03;14.20;99.90
51986;DHT22;38002;53.296;6.600;2022-07-10T02:40:29;14.30;99.90
51986;DHT22;38002;53.296;6.600;2022-07-10T02:42:55;14.20;99.90
51986;DHT22;38002;53.296;6.600;2022-07-10T02:45:20;14.20;99.90
51986;DHT22;38002;53.296;6.600;2022-07-10T02:47:46;14.30;99.90
51986;DHT22;38002;53.296;6.600;2022-07-10T02:50:11;14.30;99.90
51986;DHT22;38002;53.296;6.600;2022-07-10T02:52:37;14.30;99.90
51986;DHT22;38002;53.296;6.600;2022-07-10T02:55:03;14.30;99.90
51986;DHT22;38002;53.296;6.600;2022-07-10T02:57:28;14.30;99.90
51986;DHT22;38002;53.296;6.600;2022-07-10T02:59:54;14.30;99.90
51986;DHT22;38002;53.296;6.600;2022-07-10T03:02:19;14.30;99.90
51986;DHT22;38002;53.296;6.600;2022-07-10T03:04:45;14.30;99.90
51986;DHT22;38002;53.296;6.600;2022-07-10T03:07:10;14.30;99.90
51986;DHT22;38002;53.296;6.600;2022-07-10T03:09:36;14.30;99.90
51986;DHT22;38002;53.296;6.600;2022-07-10T03:12:01;14.30;99.90
51986;DHT22;38002;53.296;6.600;2022-07-10T03:14:27;14.30;99.90
51986;DHT22;38002;53.296;6.600;2022-07-10T03:16:53;14.30;99.90
51986;DHT22;38002;53.296;6.600;2022-07-10T03:19:18;14.20;99.90
51986;DHT22;38002;53.296;6.600;2022-07-10T03:21:44;14.20;99.90
51986;DHT22;38002;53.296;6.600;2022-07-10T03:24:11;14.20;99.90
51986;DHT22;38002;53.296;6.600;2022-07-10T03:26:37;14.20;99.90
51986;DHT22;38002;53.296;6.600;2022-07-10T03:29:02;14.30;99.90
51986;DHT22;38002;53.296;6.600;2022-07-10T03:31:28;14.30;99.90
51986;DHT22;38002;53.296;6.600;2022-07-10T03:33:53;14.30;99.90
51986;DHT22;38002;53.296;6.600;2022-07-10T03:36:19;14.30;99.90
51986;DHT22;38002;53.296;6.600;2022-07-10T03:38:45;14.30;99.90
51986;DHT22;38002;53.296;6.600;2022-07-10T03:41:12;14.30;99.90
51986;DHT22;38002;53.296;6.600;2022-07-10T03:43:38;14.40;99.90
51986;DHT22;38002;53.296;6.600;2022-07-10T03:46:03;14.40;99.90
51986;DHT22;38002;53.296;6.600;2022-07-10T03:48:29;14.40;99.90
51986;DHT22;38002;53.296;6.600;2022-07-10T03:50:54;14.50;99.90
51986;DHT22;38002;53.296;6.600;2022-07-10T03:53:20;14.50;99.90
51986;DHT22;38002;53.296;6.600;2022-07-10T03:55:45;14.50;99.90
51986;DHT22;38002;53.296;6.600;2022-07-10T03:58:11;14.60;99.90
51986;DHT22;38002;53.296;6.600;2022-07-10T04:00:37;14.60;99.90
51986;DHT22;38002;53.296;6.600;2022-07-10T04:03:04;14.60;99.90
51986;DHT22;38002;53.296;6.600;2022-07-10T04:05:30;14.60;99.90
51986;DHT22;38002;53.296;6.600;2022-07-10T04:07:56;14.60;99.90
51986;DHT22;38002;53.296;6.600;2022-07-10T04:10:22;14.70;99.90
51986;DHT22;38002;53.296;6.600;2022-07-10T04:12:48;14.70;99.90
51986;DHT22;38002;53.296;6.600;2022-07-10T04:15:13;14.70;99.90
51986;DHT22;38002;53.296;6.600;2022-07-10T04:17:39;14.70;99.90
51986;DHT22;38002;53.296;6.600;2022-07-10T04:20:05;14.80;99.90
51986;DHT22;38002;53.296;6.600;2022-07-10T04:22:31;14.70;99.90
51986;DHT22;38002;53.296;6.600;2022-07-10T04:24:56;14.80;99.90
51986;DHT22;38002;53.296;6.600;2022-07-10T04:27:22;14.80;99.90
51986;DHT22;38002;53.296;6.600;2022-07-10T04:29:47;14.80;99.90
51986;DHT22;38002;53.296;6.600;2022-07-10T04:32:13;14.80;99.90
51986;DHT22;38002;53.296;6.600;2022-07-10T04:34:39;14.80;99.90
51986;DHT22;38002;53.296;6.600;2022-07-10T04:37:05;14.80;99.90
51986;DHT22;38002;53.296;6.600;2022-07-10T04:39:33;14.90;99.90
51986;DHT22;38002;53.296;6.600;2022-07-10T04:41:59;14.90;99.90
51986;DHT22;38002;53.296;6.600;2022-07-10T04:44:24;14.90;99.90
51986;DHT22;38002;53.296;6.600;2022-07-10T04:46:50;14.90;99.90
51986;DHT22;38002;53.296;6.600;2022-07-10T04:49:15;14.90;99.90
51986;DHT22;38002;53.296;6.600;2022-07-10T04:51:41;14.90;99.90
51986;DHT22;38002;53.296;6.600;2022-07-10T04:54:07;14.90;99.90
51986;DHT22;38002;53.296;6.600;2022-07-10T04:56:32;14.90;99.90
51986;DHT22;38002;53.296;6.600;2022-07-10T04:58:58;14.90;99.90
51986;DHT22;38002;53.296;6.600;2022-07-10T05:01:23;15.00;99.90
51986;DHT22;38002;53.296;6.600;2022-07-10T05:03:49;15.00;99.90
51986;DHT22;38002;53.296;6.600;2022-07-10T05:06:15;15.00;99.90
51986;DHT22;38002;53.296;6.600;2022-07-10T05:08:40;15.10;99.90
51986;DHT22;38002;53.296;6.600;2022-07-10T05:11:06;15.10;99.90
51986;DHT22;38002;53.296;6.600;2022-07-10T05:13:31;15.10;99.90
51986;DHT22;38002;53.296;6.600;2022-07-10T05:15:57;15.10;99.90
51986;DHT22;38002;53.296;6.600;2022-07-10T05:18:23;15.20;99.90
51986;DHT22;38002;53.296;6.600;2022-07-10T05:20:48;15.20;99.90
51986;DHT22;38002;53.296;6.600;2022-07-10T05:23:15;15.30;99.90
51986;DHT22;38002;53.296;6.600;2022-07-10T05:25:40;15.30;99.90
51986;DHT22;38002;53.296;6.600;2022-07-10T05:28:06;15.30;99.90
51986;DHT22;38002;53.296;6.600;2022-07-10T05:30:32;15.30;99.90
51986;DHT22;38002;53.296;6.600;2022-07-10T05:32:57;15.40;99.90
51986;DHT22;38002;53.296;6.600;2022-07-10T05:35:23;15.40;99.90
51986;DHT22;38002;53.296;6.600;2022-07-10T05:37:48;15.50;99.90
51986;DHT22;38002;53.296;6.600;2022-07-10T05:40:14;15.50;99.90
51986;DHT22;38002;53.296;6.600;2022-07-10T05:42:40;15.50;99.90
51986;DHT22;38002;53.296;6.600;2022-07-10T05:45:05;15.60;99.90
51986;DHT22;38002;53.296;6.600;2022-07-10T05:47:32;15.50;99.90
51986;DHT22;38002;53.296;6.600;2022-07-10T05:49:58;15.60;99.90
51986;DHT22;38002;53.296;6.600;2022-07-10T05:52:24;15.60;99.90
51986;DHT22;38002;53.296;6.600;2022-07-10T05:54:50;15.60;99.90
51986;DHT22;38002;53.296;6.600;2022-07-10T05:57:16;15.60;99.90
51986;DHT22;38002;53.296;6.600;2022-07-10T05:59:42;15.60;99.90
51986;DHT22;38002;53.296;6.600;2022-07-10T06:02:07;15.70;99.90
51986;DHT22;38002;53.296;6.600;2022-07-10T06:04:33;15.60;99.90
51986;DHT22;38002;53.296;6.600;2022-07-10T06:06:59;15.70;99.90
51986;DHT22;38002;53.296;6.600;2022-07-10T06:09:24;15.70;99.90
51986;DHT22;38002;53.296;6.600;2022-07-10T06:11:50;15.70;99.90
51986;DHT22;38002;53.296;6.600;2022-07-10T06:14:16;15.70;99.90
51986;DHT22;38002;53.296;6.600;2022-07-10T06:16:41;15.70;99.90
51986;DHT22;38002;53.296;6.600;2022-07-10T06:19:07;15.80;99.90
51986;DHT22;38002;53.296;6.600;2022-07-10T06:21:32;15.80;99.90
51986;DHT22;38002;53.296;6.600;2022-07-10T06:23:58;15.90;99.90
51986;DHT22;38002;53.296;6.600;2022-07-10T06:26:24;15.80;99.90
51986;DHT22;38002;53.296;6.600;2022-07-10T06:28:50;15.80;99.90
51986;DHT22;38002;53.296;6.600;2022-07-10T06:31:16;15.80;99.90
51986;DHT22;38002;53.296;6.600;2022-07-10T06:33:41;15.80;99.90
51986;DHT22;38002;53.296;6.600;2022-07-10T06:36:07;15.80;99.90
51986;DHT22;38002;53.296;6.600;2022-07-10T06:38:33;15.80;99.90
51986;DHT22;38002;53.296;6.600;2022-07-10T06:40:58;15.80;99.90
51986;DHT22;38002;53.296;6.600;2022-07-10T06:43:24;15.80;99.90
51986;DHT22;38002;53.296;6.600;2022-07-10T06:45:49;15.80;99.90
51986;DHT22;38002;53.296;6.600;2022-07-10T06:48:15;15.80;99.90
51986;DHT22;38002;53.296;6.600;2022-07-10T06:50:41;15.80;99.90
51986;DHT22;38002;53.296;6.600;2022-07-10T06:53:06;15.80;99.90
51986;DHT22;38002;53.296;6.600;2022-07-10T06:55:32;15.90;99.90
51986;DHT22;38002;53.296;6.600;2022-07-10T06:57:58;15.90;99.90
51986;DHT22;38002;53.296;6.600;2022-07-10T07:00:24;15.90;99.90
51986;DHT22;38002;53.296;6.600;2022-07-10T07:02:49;15.90;99.90
51986;DHT22;38002;53.296;6.600;2022-07-10T07:05:15;16.00;99.90
51986;DHT22;38002;53.296;6.600;2022-07-10T07:07:41;16.00;99.90
51986;DHT22;38002;53.296;6.600;2022-07-10T07:10:07;16.00;99.90
51986;DHT22;38002;53.296;6.600;2022-07-10T07:12:33;16.10;99.90
51986;DHT22;38002;53.296;6.600;2022-07-10T07:14:59;16.10;99.90
51986;DHT22;38002;53.296;6.600;2022-07-10T07:17:24;16.10;99.90
51986;DHT22;38002;53.296;6.600;2022-07-10T07:19:58;16.20;99.90
51986;DHT22;38002;53.296;6.600;2022-07-10T07:22:43;16.20;99.90
51986;DHT22;38002;53.296;6.600;2022-07-10T07:25:27;16.30;99.90
51986;DHT22;38002;53.296;6.600;2022-07-10T07:27:53;16.30;99.90
51986;DHT22;38002;53.296;6.600;2022-07-10T07:30:18;16.40;99.90
51986;DHT22;38002;53.296;6.600;2022-07-10T07:32:45;16.50;99.90
51986;DHT22;38002;53.296;6.600;2022-07-10T07:35:11;16.50;99.90
51986;DHT22;38002;53.296;6.600;2022-07-10T07:37:38;16.50;99.90
51986;DHT22;38002;53.296;6.600;2022-07-10T07:40:08;16.60;99.90
51986;DHT22;38002;53.296;6.600;2022-07-10T07:42:34;16.70;99.90
51986;DHT22;38002;53.296;6.600;2022-07-10T07:44:59;16.70;99.90
51986;DHT22;38002;53.296;6.600;2022-07-10T07:47:25;16.80;99.90
51986;DHT22;38002;53.296;6.600;2022-07-10T07:49:51;16.90;99.90
51986;DHT22;38002;53.296;6.600;2022-07-10T07:52:16;17.00;99.90
51986;DHT22;38002;53.296;6.600;2022-07-10T07:54:42;17.00;99.90
51986;DHT22;38002;53.296;6.600;2022-07-10T07:57:08;17.10;99.90
51986;DHT22;38002;53.296;6.600;2022-07-10T07:59:33;17.10;99.90
51986;DHT22;38002;53.296;6.600;2022-07-10T08:01:59;17.10;99.90
51986;DHT22;38002;53.296;6.600;2022-07-10T08:04:24;17.10;99.90
51986;DHT22;38002;53.296;6.600;2022-07-10T08:06:50;17.10;99.90
51986;DHT22;38002;53.296;6.600;2022-07-10T08:09:18;17.00;99.90
51986;DHT22;38002;53.296;6.600;2022-07-10T08:11:43;16.90;99.90
51986;DHT22;38002;53.296;6.600;2022-07-10T08:14:09;16.90;99.90
51986;DHT22;38002;53.296;6.600;2022-07-10T08:16:34;16.80;99.90
51986;DHT22;38002;53.296;6.600;2022-07-10T08:19:00;16.80;99.90
51986;DHT22;38002;53.296;6.600;2022-07-10T08:21:25;16.80;99.90
51986;DHT22;38002;53.296;6.600;2022-07-10T08:23:51;16.70;99.90
51986;DHT22;38002;53.296;6.600;2022-07-10T08:26:19;16.70;99.90
51986;DHT22;38002;53.296;6.600;2022-07-10T08:28:44;16.70;99.90
51986;DHT22;38002;53.296;6.600;2022-07-10T08:31:10;16.70;99.90
51986;DHT22;38002;53.296;6.600;2022-07-10T08:33:35;16.70;99.90
51986;DHT22;38002;53.296;6.600;2022-07-10T08:36:01;16.60;99.90
51986;DHT22;38002;53.296;6.600;2022-07-10T08:38:27;16.60;99.90
51986;DHT22;38002;53.296;6.600;2022-07-10T08:40:53;16.70;99.90
51986;DHT22;38002;53.296;6.600;2022-07-10T08:43:25;16.70;99.90
51986;DHT22;38002;53.296;6.600;2022-07-10T08:45:51;16.80;99.90
51986;DHT22;38002;53.296;6.600;2022-07-10T08:48:22;16.80;99.90
51986;DHT22;38002;53.296;6.600;2022-07-10T08:50:51;16.90;99.90
51986;DHT22;38002;53.296;6.600;2022-07-10T08:55:48;17.10;99.90
51986;DHT22;38002;53.296;6.600;2022-07-10T08:58:14;17.10;99.90
51986;DHT22;38002;53.296;6.600;2022-07-10T09:00:40;17.10;99.90
51986;DHT22;38002;53.296;6.600;2022-07-10T09:03:07;17.20;99.90
51986;DHT22;38002;53.296;6.600;2022-07-10T09:05:32;17.30;99.90
51986;DHT22;38002;53.296;6.600;2022-07-10T09:07:58;17.50;99.90
51986;DHT22;38002;53.296;6.600;2022-07-10T09:10:24;17.60;99.90
51986;DHT22;38002;53.296;6.600;2022-07-10T09:15:23;17.80;99.90
51986;DHT22;38002;53.296;6.600;2022-07-10T09:17:56;17.80;99.90
51986;DHT22;38002;53.296;6.600;2022-07-10T09:20:35;17.90;99.90
51986;DHT22;38002;53.296;6.600;2022-07-10T09:25:43;18.00;99.90
51986;DHT22;38002;53.296;6.600;2022-07-10T09:28:08;18.10;99.90
51986;DHT22;38002;53.296;6.600;2022-07-10T09:30:40;18.20;99.90
51986;DHT22;38002;53.296;6.600;2022-07-10T09:43:47;18.00;99.90
51986;DHT22;38002;53.296;6.600;2022-07-10T09:46:14;18.00;99.90
51986;DHT22;38002;53.296;6.600;2022-07-10T09:48:39;18.00;99.90
51986;DHT22;38002;53.296;6.600;2022-07-10T09:51:07;18.00;99.90
51986;DHT22;38002;53.296;6.600;2022-07-10T09:53:40;17.90;99.90
51986;DHT22;38002;53.296;6.600;2022-07-10T09:56:06;17.90;99.90
51986;DHT22;38002;53.296;6.600;2022-07-10T09:58:33;17.80;99.90
51986;DHT22;38002;53.296;6.600;2022-07-10T10:01:04;17.90;99.90
51986;DHT22;38002;53.296;6.600;2022-07-10T10:03:34;17.80;99.90
51986;DHT22;38002;53.296;6.600;2022-07-10T10:06:02;17.80;99.90
51986;DHT22;38002;53.296;6.600;2022-07-10T10:08:32;17.80;99.90
51986;DHT22;38002;53.296;6.600;2022-07-10T10:11:02;17.80;99.90
51986;DHT22;38002;53.296;6.600;2022-07-10T10:13:28;17.70;99.90
51986;DHT22;38002;53.296;6.600;2022-07-10T10:15:55;17.60;99.90
51986;DHT22;38002;53.296;6.600;2022-07-10T10:18:22;17.50;99.90
51986;DHT22;38002;53.296;6.600;2022-07-10T10:20:48;17.40;99.90
51986;DHT22;38002;53.296;6.600;2022-07-10T10:23:18;17.40;99.90
51986;DHT22;38002;53.296;6.600;2022-07-10T10:25:46;17.40;99.90
51986;DHT22;38002;53.296;6.600;2022-07-10T10:28:12;17.50;99.90
51986;DHT22;38002;53.296;6.600;2022-07-10T10:30:39;17.60;99.90
51986;DHT22;38002;53.296;6.600;2022-07-10T10:35:48;17.90;99.90
51986;DHT22;38002;53.296;6.600;2022-07-10T10:38:14;18.00;99.90
51986;DHT22;38002;53.296;6.600;2022-07-10T10:40:42;18.20;99.90
51986;DHT22;38002;53.296;6.600;2022-07-10T10:43:17;18.40;99.90
51986;DHT22;38002;53.296;6.600;2022-07-10T10:45:43;18.40;99.90
51986;DHT22;38002;53.296;6.600;2022-07-10T10:48:11;18.40;99.90
51986;DHT22;38002;53.296;6.600;2022-07-10T10:50:38;18.20;99.90
51986;DHT22;38002;53.296;6.600;2022-07-10T10:53:18;18.00;99.90
51986;DHT22;38002;53.296;6.600;2022-07-10T10:58:29;17.90;99.90
51986;DHT22;38002;53.296;6.600;2022-07-10T11:01:04;17.70;99.90
51986;DHT22;38002;53.296;6.600;2022-07-10T11:03:30;17.70;99.90
51986;DHT22;38002;53.296;6.600;2022-07-10T11:05:56;17.60;99.90
51986;DHT22;38002;53.296;6.600;2022-07-10T11:08:35;17.70;99.90
51986;DHT22;38002;53.296;6.600;2022-07-10T11:11:01;17.70;99.90
51986;DHT22;38002;53.296;6.600;2022-07-10T11:13:27;17.80;99.90
51986;DHT22;38002;53.296;6.600;2022-07-10T11:15:54;17.90;99.90
51986;DHT22;38002;53.296;6.600;2022-07-10T11:18:21;17.90;99.90
51986;DHT22;38002;53.296;6.600;2022-07-10T11:20:56;18.00;99.90
51986;DHT22;38002;53.296;6.600;2022-07-10T11:26:07;18.00;99.90
51986;DHT22;38002;53.296;6.600;2022-07-10T11:31:14;18.00;99.90
51986;DHT22;38002;53.296;6.600;2022-07-10T11:33:40;18.00;99.90
51986;DHT22;38002;53.296;6.600;2022-07-10T11:36:11;17.90;99.90
51986;DHT22;38002;53.296;6.600;2022-07-10T11:38:40;17.90;99.90
51986;DHT22;38002;53.296;6.600;2022-07-10T11:41:17;17.90;99.90
51986;DHT22;38002;53.296;6.600;2022-07-10T11:43:46;17.90;99.90
51986;DHT22;38002;53.296;6.600;2022-07-10T11:46:12;17.90;99.90
51986;DHT22;38002;53.296;6.600;2022-07-10T11:48:39;18.00;99.90
51986;DHT22;38002;53.296;6.600;2022-07-10T11:51:27;18.00;99.90
51986;DHT22;38002;53.296;6.600;2022-07-10T11:54:00;18.10;99.90
51986;DHT22;38002;53.296;6.600;2022-07-10T11:56:27;18.10;99.90
51986;DHT22;38002;53.296;6.600;2022-07-10T11:58:57;18.10;99.90
51986;DHT22;38002;53.296;6.600;2022-07-10T12:01:23;18.20;99.90
51986;DHT22;38002;53.296;6.600;2022-07-10T12:03:55;18.20;99.90
51986;DHT22;38002;53.296;6.600;2022-07-10T12:06:24;18.30;99.90
51986;DHT22;38002;53.296;6.600;2022-07-10T12:08:50;18.40;99.90
51986;DHT22;38002;53.296;6.600;2022-07-10T12:11:17;18.40;99.90
51986;DHT22;38002;53.296;6.600;2022-07-10T12:13:44;18.50;99.90
51986;DHT22;38002;53.296;6.600;2022-07-10T12:16:10;18.50;99.90
51986;DHT22;38002;53.296;6.600;2022-07-10T12:18:36;18.60;99.90
51986;DHT22;38002;53.296;6.600;2022-07-10T12:21:02;18.60;99.90
51986;DHT22;38002;53.296;6.600;2022-07-10T12:23:28;18.60;99.90
51986;DHT22;38002;53.296;6.600;2022-07-10T12:25:53;18.60;99.90
51986;DHT22;38002;53.296;6.600;2022-07-10T12:28:21;18.60;99.90
51986;DHT22;38002;53.296;6.600;2022-07-10T12:30:47;18.60;99.90
51986;DHT22;38002;53.296;6.600;2022-07-10T12:33:15;18.60;99.90
51986;DHT22;38002;53.296;6.600;2022-07-10T12:35:58;18.70;99.90
51986;DHT22;38002;53.296;6.600;2022-07-10T12:38:26;18.70;99.90
51986;DHT22;38002;53.296;6.600;2022-07-10T12:41:11;18.70;99.90
51986;DHT22;38002;53.296;6.600;2022-07-10T12:43:37;18.70;99.90
51986;DHT22;38002;53.296;6.600;2022-07-10T12:46:19;18.60;99.90
51986;DHT22;38002;53.296;6.600;2022-07-10T12:49:01;18.50;99.90
51986;DHT22;38002;53.296;6.600;2022-07-10T12:51:28;18.40;99.90
51986;DHT22;38002;53.296;6.600;2022-07-10T12:53:54;18.20;99.90
51986;DHT22;38002;53.296;6.600;2022-07-10T12:56:33;18.10;99.90
51986;DHT22;38002;53.296;6.600;2022-07-10T12:58:59;18.10;99.90
51986;DHT22;38002;53.296;6.600;2022-07-10T13:01:26;18.10;99.90
51986;DHT22;38002;53.296;6.600;2022-07-10T13:03:59;18.00;99.90
51986;DHT22;38002;53.296;6.600;2022-07-10T13:06:34;18.10;99.90
51986;DHT22;38002;53.296;6.600;2022-07-10T13:09:02;18.10;99.90
51986;DHT22;38002;53.296;6.600;2022-07-10T13:11:27;18.20;99.90
51986;DHT22;38002;53.296;6.600;2022-07-10T13:13:56;18.20;99.90
51986;DHT22;38002;53.296;6.600;2022-07-10T13:16:22;18.30;99.90
51986;DHT22;38002;53.296;6.600;2022-07-10T13:18:48;18.40;99.90
51986;DHT22;38002;53.296;6.600;2022-07-10T13:21:13;18.50;99.90
51986;DHT22;38002;53.296;6.600;2022-07-10T13:23:39;18.70;99.90
51986;DHT22;38002;53.296;6.600;2022-07-10T13:26:05;18.70;99.90
51986;DHT22;38002;53.296;6.600;2022-07-10T13:28:33;18.80;99.90
51986;DHT22;38002;53.296;6.600;2022-07-10T13:30:59;18.80;99.90
51986;DHT22;38002;53.296;6.600;2022-07-10T13:33:25;18.80;99.90
51986;DHT22;38002;53.296;6.600;2022-07-10T13:35:51;18.90;99.90
51986;DHT22;38002;53.296;6.600;2022-07-10T13:38:17;19.00;99.90
51986;DHT22;38002;53.296;6.600;2022-07-10T13:40:44;19.10;99.90
51986;DHT22;38002;53.296;6.600;2022-07-10T13:43:09;19.30;99.90
51986;DHT22;38002;53.296;6.600;2022-07-10T13:45:35;19.50;99.90
51986;DHT22;38002;53.296;6.600;2022-07-10T13:48:19;19.60;99.90
51986;DHT22;38002;53.296;6.600;2022-07-10T13:50:45;19.50;99.90
51986;DHT22;38002;53.296;6.600;2022-07-10T13:53:15;19.50;99.90
51986;DHT22;38002;53.296;6.600;2022-07-10T13:55:41;19.40;99.90
51986;DHT22;38002;53.296;6.600;2022-07-10T13:58:08;19.20;99.90
51986;DHT22;38002;53.296;6.600;2022-07-10T14:00:34;19.10;99.90
51986;DHT22;38002;53.296;6.600;2022-07-10T14:03:00;19.00;99.90
51986;DHT22;38002;53.296;6.600;2022-07-10T14:05:26;18.90;99.90
51986;DHT22;38002;53.296;6.600;2022-07-10T14:07:51;18.80;99.90
51986;DHT22;38002;53.296;6.600;2022-07-10T14:10:17;18.80;99.90
51986;DHT22;38002;53.296;6.600;2022-07-10T14:12:42;18.80;99.90
51986;DHT22;38002;53.296;6.600;2022-07-10T14:15:08;18.80;99.90
51986;DHT22;38002;53.296;6.600;2022-07-10T14:17:34;18.90;99.90
51986;DHT22;38002;53.296;6.600;2022-07-10T14:20:00;18.90;99.90
51986;DHT22;38002;53.296;6.600;2022-07-10T14:22:25;19.00;99.90
51986;DHT22;38002;53.296;6.600;2022-07-10T14:24:51;19.10;99.90
51986;DHT22;38002;53.296;6.600;2022-07-10T14:27:17;19.10;99.90
51986;DHT22;38002;53.296;6.600;2022-07-10T14:29:43;19.20;99.90
51986;DHT22;38002;53.296;6.600;2022-07-10T14:32:08;19.20;99.90
51986;DHT22;38002;53.296;6.600;2022-07-10T14:34:34;19.30;99.90
51986;DHT22;38002;53.296;6.600;2022-07-10T14:37:00;19.40;99.90
51986;DHT22;38002;53.296;6.600;2022-07-10T14:39:26;19.50;99.90
51986;DHT22;38002;53.296;6.600;2022-07-10T14:41:51;19.40;99.90
51986;DHT22;38002;53.296;6.600;2022-07-10T14:44:17;19.50;99.90
51986;DHT22;38002;53.296;6.600;2022-07-10T14:46:43;19.50;99.90
51986;DHT22;38002;53.296;6.600;2022-07-10T14:49:08;19.50;99.90
51986;DHT22;38002;53.296;6.600;2022-07-10T14:51:34;19.60;99.90
51986;DHT22;38002;53.296;6.600;2022-07-10T14:54:01;19.60;99.90
51986;DHT22;38002;53.296;6.600;2022-07-10T14:56:26;19.70;99.90
51986;DHT22;38002;53.296;6.600;2022-07-10T14:58:52;19.80;99.90
51986;DHT22;38002;53.296;6.600;2022-07-10T15:01:18;19.90;99.90
51986;DHT22;38002;53.296;6.600;2022-07-10T15:03:43;19.80;99.90
51986;DHT22;38002;53.296;6.600;2022-07-10T15:06:09;19.90;99.90
51986;DHT22;38002;53.296;6.600;2022-07-10T15:08:35;19.90;99.90
51986;DHT22;38002;53.296;6.600;2022-07-10T15:11:00;19.90;99.90
51986;DHT22;38002;53.296;6.600;2022-07-10T15:13:27;20.00;99.90
51986;DHT22;38002;53.296;6.600;2022-07-10T15:15:53;20.00;99.90
51986;DHT22;38002;53.296;6.600;2022-07-10T15:18:18;19.90;99.90
51986;DHT22;38002;53.296;6.600;2022-07-10T15:20:44;19.80;99.90
51986;DHT22;38002;53.296;6.600;2022-07-10T15:23:10;19.80;99.90
51986;DHT22;38002;53.296;6.600;2022-07-10T15:25:36;19.80;99.90
51986;DHT22;38002;53.296;6.600;2022-07-10T15:28:05;19.80;99.90
51986;DHT22;38002;53.296;6.600;2022-07-10T15:30:30;19.80;99.90
51986;DHT22;38002;53.296;6.600;2022-07-10T15:32:56;19.80;99.90
51986;DHT22;38002;53.296;6.600;2022-07-10T15:35:22;19.80;99.90
51986;DHT22;38002;53.296;6.600;2022-07-10T15:37:49;19.90;99.90
51986;DHT22;38002;53.296;6.600;2022-07-10T15:40:15;19.90;99.90
51986;DHT22;38002;53.296;6.600;2022-07-10T15:42:41;20.00;99.90
51986;DHT22;38002;53.296;6.600;2022-07-10T15:45:07;20.00;99.90
51986;DHT22;38002;53.296;6.600;2022-07-10T15:47:32;20.00;99.90
51986;DHT22;38002;53.296;6.600;2022-07-10T15:49:58;20.00;99.90
51986;DHT22;38002;53.296;6.600;2022-07-10T15:52:24;20.00;99.90
51986;DHT22;38002;53.296;6.600;2022-07-10T15:54:49;20.10;99.90
51986;DHT22;38002;53.296;6.600;2022-07-10T15:57:15;20.10;99.90